Terminal Aerodrome Forecast
Issued by NWS

Home | Current Version | Previous Version | Text Only | Print | Product List | Glossary On
Versions: 1 2 3 4 5 6 7 8 9 10 11 12 13 14 15 16 17 18 19 20 21 22 23
000
FTUS46 KPQR 240859 AAA
TAFONP
TAF AMD
KONP 240859Z 2409/2506 09018G28KT P6SM FEW300
     FM242100 33009G15KT P6SM BKN300
     FM250000 35006KT P6SM BKN250=

USA.gov is the U.S. government's official web portal to all federal, state and local government web resources and services.